sensor_id;sensor_type;location;lat;lon;timestamp;P1;durP1;ratioP1;P2;durP2;ratioP2
47529;SDS011;33272;51.922;7.730;2023-02-22T00:01:31;58.03;;;31.50;;
47529;SDS011;33272;51.922;7.730;2023-02-22T00:04:14;57.70;;;32.03;;
47529;SDS011;33272;51.922;7.730;2023-02-22T00:06:45;59.30;;;32.10;;
47529;SDS011;33272;51.922;7.730;2023-02-22T00:09:13;53.73;;;33.23;;
47529;SDS011;33272;51.922;7.730;2023-02-22T00:11:44;54.47;;;31.90;;
47529;SDS011;33272;51.922;7.730;2023-02-22T00:14:12;56.37;;;31.17;;
47529;SDS011;33272;51.922;7.730;2023-02-22T00:16:41;55.73;;;31.30;;
47529;SDS011;33272;51.922;7.730;2023-02-22T00:19:08;54.33;;;30.60;;
47529;SDS011;33272;51.922;7.730;2023-02-22T00:21:35;59.17;;;32.13;;
47529;SDS011;33272;51.922;7.730;2023-02-22T00:24:02;49.27;;;29.57;;
47529;SDS011;33272;51.922;7.730;2023-02-22T00:26:46;57.60;;;31.47;;
47529;SDS011;33272;51.922;7.730;2023-02-22T00:29:15;51.80;;;30.13;;
47529;SDS011;33272;51.922;7.730;2023-02-22T00:31:43;60.67;;;32.80;;
47529;SDS011;33272;51.922;7.730;2023-02-22T00:34:10;52.07;;;31.23;;
47529;SDS011;33272;51.922;7.730;2023-02-22T00:36:43;56.93;;;32.30;;
47529;SDS011;33272;51.922;7.730;2023-02-22T00:39:11;57.60;;;31.70;;
47529;SDS011;33272;51.922;7.730;2023-02-22T00:41:38;52.10;;;30.10;;
47529;SDS011;33272;51.922;7.730;2023-02-22T00:44:05;59.33;;;32.23;;
47529;SDS011;33272;51.922;7.730;2023-02-22T00:46:32;59.27;;;30.93;;
47529;SDS011;33272;51.922;7.730;2023-02-22T00:49:01;58.07;;;31.33;;
47529;SDS011;33272;51.922;7.730;2023-02-22T00:51:29;49.10;;;27.73;;
47529;SDS011;33272;51.922;7.730;2023-02-22T00:53:57;54.53;;;28.47;;
47529;SDS011;33272;51.922;7.730;2023-02-22T00:56:24;52.40;;;29.60;;
47529;SDS011;33272;51.922;7.730;2023-02-22T00:58:51;52.27;;;29.47;;
47529;SDS011;33272;51.922;7.730;2023-02-22T01:01:18;52.60;;;30.53;;
47529;SDS011;33272;51.922;7.730;2023-02-22T01:03:46;56.90;;;29.77;;
47529;SDS011;33272;51.922;7.730;2023-02-22T01:06:14;54.00;;;29.43;;
47529;SDS011;33272;51.922;7.730;2023-02-22T01:08:42;58.17;;;30.73;;
47529;SDS011;33272;51.922;7.730;2023-02-22T01:11:10;54.53;;;30.60;;
47529;SDS011;33272;51.922;7.730;2023-02-22T01:13:37;55.83;;;30.17;;
47529;SDS011;33272;51.922;7.730;2023-02-22T01:16:05;52.33;;;30.43;;
47529;SDS011;33272;51.922;7.730;2023-02-22T01:18:32;56.07;;;29.83;;
47529;SDS011;33272;51.922;7.730;2023-02-22T01:21:00;54.67;;;30.27;;
47529;SDS011;33272;51.922;7.730;2023-02-22T01:23:29;52.13;;;29.60;;
47529;SDS011;33272;51.922;7.730;2023-02-22T01:25:56;51.93;;;30.10;;
47529;SDS011;33272;51.922;7.730;2023-02-22T01:28:23;56.17;;;30.23;;
47529;SDS011;33272;51.922;7.730;2023-02-22T01:30:50;52.00;;;29.17;;
47529;SDS011;33272;51.922;7.730;2023-02-22T01:33:20;51.60;;;29.20;;
47529;SDS011;33272;51.922;7.730;2023-02-22T01:35:46;47.63;;;26.77;;
47529;SDS011;33272;51.922;7.730;2023-02-22T01:38:15;47.03;;;28.60;;
47529;SDS011;33272;51.922;7.730;2023-02-22T01:40:46;50.73;;;29.23;;
47529;SDS011;33272;51.922;7.730;2023-02-22T01:43:18;57.90;;;30.70;;
47529;SDS011;33272;51.922;7.730;2023-02-22T01:45:49;57.40;;;28.67;;
47529;SDS011;33272;51.922;7.730;2023-02-22T01:48:30;49.53;;;29.10;;
47529;SDS011;33272;51.922;7.730;2023-02-22T01:51:07;47.77;;;26.03;;
47529;SDS011;33272;51.922;7.730;2023-02-22T01:53:40;55.97;;;28.50;;
47529;SDS011;33272;51.922;7.730;2023-02-22T01:56:14;53.77;;;28.73;;
47529;SDS011;33272;51.922;7.730;2023-02-22T01:58:43;58.80;;;28.53;;
47529;SDS011;33272;51.922;7.730;2023-02-22T02:01:15;52.00;;;29.00;;
47529;SDS011;33272;51.922;7.730;2023-02-22T02:03:47;54.23;;;29.27;;
47529;SDS011;33272;51.922;7.730;2023-02-22T02:06:15;55.80;;;28.20;;
47529;SDS011;33272;51.922;7.730;2023-02-22T02:08:47;61.60;;;28.93;;
47529;SDS011;33272;51.922;7.730;2023-02-22T02:11:24;82.70;;;29.27;;
47529;SDS011;33272;51.922;7.730;2023-02-22T02:13:53;115.43;;;29.40;;
47529;SDS011;33272;51.922;7.730;2023-02-22T02:16:23;101.53;;;26.10;;
47529;SDS011;33272;51.922;7.730;2023-02-22T02:18:55;148.70;;;28.00;;
47529;SDS011;33272;51.922;7.730;2023-02-22T02:21:27;195.97;;;30.70;;
47529;SDS011;33272;51.922;7.730;2023-02-22T02:24:42;105.57;;;27.33;;
47529;SDS011;33272;51.922;7.730;2023-02-22T02:27:50;123.90;;;28.60;;
47529;SDS011;33272;51.922;7.730;2023-02-22T02:34:22;79.90;;;26.13;;
47529;SDS011;33272;51.922;7.730;2023-02-22T02:36:58;171.17;;;29.87;;
47529;SDS011;33272;51.922;7.730;2023-02-22T02:39:38;123.07;;;28.90;;
47529;SDS011;33272;51.922;7.730;2023-02-22T02:42:14;303.33;;;32.83;;
47529;SDS011;33272;51.922;7.730;2023-02-22T02:44:47;163.80;;;28.23;;
47529;SDS011;33272;51.922;7.730;2023-02-22T02:47:21;210.70;;;31.00;;
47529;SDS011;33272;51.922;7.730;2023-02-22T02:49:54;225.60;;;31.43;;
47529;SDS011;33272;51.922;7.730;2023-02-22T02:52:26;135.57;;;27.67;;
47529;SDS011;33272;51.922;7.730;2023-02-22T02:54:56;177.97;;;30.07;;
47529;SDS011;33272;51.922;7.730;2023-02-22T02:57:25;177.40;;;29.47;;
47529;SDS011;33272;51.922;7.730;2023-02-22T02:59:51;179.53;;;28.77;;
47529;SDS011;33272;51.922;7.730;2023-02-22T03:02:23;104.53;;;27.10;;
47529;SDS011;33272;51.922;7.730;2023-02-22T03:05:14;171.60;;;28.40;;
47529;SDS011;33272;51.922;7.730;2023-02-22T03:08:04;100.77;;;25.50;;
47529;SDS011;33272;51.922;7.730;2023-02-22T03:10:44;192.73;;;27.87;;
47529;SDS011;33272;51.922;7.730;2023-02-22T03:13:23;110.67;;;27.73;;
47529;SDS011;33272;51.922;7.730;2023-02-22T03:16:01;198.37;;;29.47;;
47529;SDS011;33272;51.922;7.730;2023-02-22T03:18:38;86.50;;;25.53;;
47529;SDS011;33272;51.922;7.730;2023-02-22T03:21:18;148.03;;;26.03;;
47529;SDS011;33272;51.922;7.730;2023-02-22T03:23:54;121.87;;;23.73;;
47529;SDS011;33272;51.922;7.730;2023-02-22T03:26:33;115.33;;;22.43;;
47529;SDS011;33272;51.922;7.730;2023-02-22T03:29:04;168.93;;;24.60;;
47529;SDS011;33272;51.922;7.730;2023-02-22T03:31:37;78.73;;;20.13;;
47529;SDS011;33272;51.922;7.730;2023-02-22T03:34:10;195.40;;;24.63;;
47529;SDS011;33272;51.922;7.730;2023-02-22T03:36:43;108.37;;;21.73;;
47529;SDS011;33272;51.922;7.730;2023-02-22T03:39:15;61.23;;;18.60;;
47529;SDS011;33272;51.922;7.730;2023-02-22T03:41:45;103.50;;;20.17;;
47529;SDS011;33272;51.922;7.730;2023-02-22T03:44:17;65.53;;;20.03;;
47529;SDS011;33272;51.922;7.730;2023-02-22T03:46:49;83.97;;;18.07;;
47529;SDS011;33272;51.922;7.730;2023-02-22T03:49:24;127.87;;;19.70;;
47529;SDS011;33272;51.922;7.730;2023-02-22T03:52:00;64.80;;;18.90;;
47529;SDS011;33272;51.922;7.730;2023-02-22T03:54:28;122.23;;;21.20;;
47529;SDS011;33272;51.922;7.730;2023-02-22T03:56:56;71.27;;;19.90;;
47529;SDS011;33272;51.922;7.730;2023-02-22T03:59:29;73.97;;;20.43;;
47529;SDS011;33272;51.922;7.730;2023-02-22T04:01:56;128.70;;;22.63;;
47529;SDS011;33272;51.922;7.730;2023-02-22T04:04:25;58.43;;;19.20;;
47529;SDS011;33272;51.922;7.730;2023-02-22T04:06:52;125.07;;;20.70;;
47529;SDS011;33272;51.922;7.730;2023-02-22T04:09:19;83.20;;;19.40;;
47529;SDS011;33272;51.922;7.730;2023-02-22T04:11:46;104.27;;;21.13;;
47529;SDS011;33272;51.922;7.730;2023-02-22T04:14:14;58.17;;;19.40;;
47529;SDS011;33272;51.922;7.730;2023-02-22T04:16:41;59.73;;;18.80;;
47529;SDS011;33272;51.922;7.730;2023-02-22T04:19:08;80.67;;;18.17;;
47529;SDS011;33272;51.922;7.730;2023-02-22T04:21:36;144.63;;;20.40;;
47529;SDS011;33272;51.922;7.730;2023-02-22T04:24:04;149.83;;;22.27;;
47529;SDS011;33272;51.922;7.730;2023-02-22T04:26:31;102.07;;;19.30;;
47529;SDS011;33272;51.922;7.730;2023-02-22T04:28:58;71.80;;;16.87;;
47529;SDS011;33272;51.922;7.730;2023-02-22T04:31:25;70.03;;;18.37;;
47529;SDS011;33272;51.922;7.730;2023-02-22T04:33:52;68.57;;;17.80;;
47529;SDS011;33272;51.922;7.730;2023-02-22T04:36:19;58.07;;;16.30;;
47529;SDS011;33272;51.922;7.730;2023-02-22T04:38:48;63.73;;;16.30;;
47529;SDS011;33272;51.922;7.730;2023-02-22T04:41:15;66.10;;;17.57;;
47529;SDS011;33272;51.922;7.730;2023-02-22T04:43:43;101.33;;;19.40;;
47529;SDS011;33272;51.922;7.730;2023-02-22T04:46:10;41.43;;;17.17;;
47529;SDS011;33272;51.922;7.730;2023-02-22T04:48:37;44.13;;;16.57;;
47529;SDS011;33272;51.922;7.730;2023-02-22T04:51:05;53.97;;;16.23;;
47529;SDS011;33272;51.922;7.730;2023-02-22T04:53:32;52.63;;;17.03;;
47529;SDS011;33272;51.922;7.730;2023-02-22T04:56:01;101.80;;;17.57;;
47529;SDS011;33272;51.922;7.730;2023-02-22T04:58:28;128.97;;;19.20;;
47529;SDS011;33272;51.922;7.730;2023-02-22T05:00:55;49.00;;;14.60;;
47529;SDS011;33272;51.922;7.730;2023-02-22T05:03:22;133.63;;;19.50;;
47529;SDS011;33272;51.922;7.730;2023-02-22T05:05:50;64.67;;;17.07;;
47529;SDS011;33272;51.922;7.730;2023-02-22T05:08:18;130.60;;;19.23;;
47529;SDS011;33272;51.922;7.730;2023-02-22T05:10:45;66.53;;;18.03;;
47529;SDS011;33272;51.922;7.730;2023-02-22T05:13:13;72.20;;;16.93;;
47529;SDS011;33272;51.922;7.730;2023-02-22T05:15:40;62.97;;;16.90;;
47529;SDS011;33272;51.922;7.730;2023-02-22T05:18:07;93.60;;;18.17;;
47529;SDS011;33272;51.922;7.730;2023-02-22T05:20:34;91.67;;;16.93;;
47529;SDS011;33272;51.922;7.730;2023-02-22T05:23:01;75.97;;;17.03;;
47529;SDS011;33272;51.922;7.730;2023-02-22T05:25:29;65.47;;;16.50;;
47529;SDS011;33272;51.922;7.730;2023-02-22T05:27:58;130.27;;;20.00;;
47529;SDS011;33272;51.922;7.730;2023-02-22T05:30:29;70.33;;;16.30;;
47529;SDS011;33272;51.922;7.730;2023-02-22T05:32:58;50.20;;;14.60;;
47529;SDS011;33272;51.922;7.730;2023-02-22T05:35:26;74.80;;;16.10;;
47529;SDS011;33272;51.922;7.730;2023-02-22T05:37:54;74.83;;;16.80;;
47529;SDS011;33272;51.922;7.730;2023-02-22T05:40:23;67.57;;;14.83;;
47529;SDS011;33272;51.922;7.730;2023-02-22T05:42:52;104.37;;;16.77;;
47529;SDS011;33272;51.922;7.730;2023-02-22T05:45:21;76.13;;;14.50;;
47529;SDS011;33272;51.922;7.730;2023-02-22T05:47:53;105.70;;;16.33;;
47529;SDS011;33272;51.922;7.730;2023-02-22T05:50:21;59.97;;;13.80;;
47529;SDS011;33272;51.922;7.730;2023-02-22T05:52:48;56.03;;;13.17;;
47529;SDS011;33272;51.922;7.730;2023-02-22T05:55:17;117.77;;;15.13;;
47529;SDS011;33272;51.922;7.730;2023-02-22T05:57:47;58.57;;;13.80;;
47529;SDS011;33272;51.922;7.730;2023-02-22T06:00:15;56.97;;;13.80;;
47529;SDS011;33272;51.922;7.730;2023-02-22T06:02:51;43.30;;;13.17;;
47529;SDS011;33272;51.922;7.730;2023-02-22T06:05:21;31.50;;;12.53;;
47529;SDS011;33272;51.922;7.730;2023-02-22T06:07:48;51.83;;;13.97;;
47529;SDS011;33272;51.922;7.730;2023-02-22T06:10:16;27.13;;;11.70;;
47529;SDS011;33272;51.922;7.730;2023-02-22T06:12:44;22.83;;;11.40;;
47529;SDS011;33272;51.922;7.730;2023-02-22T06:15:13;32.10;;;11.07;;
47529;SDS011;33272;51.922;7.730;2023-02-22T06:17:40;19.87;;;10.70;;
47529;SDS011;33272;51.922;7.730;2023-02-22T06:20:11;17.97;;;11.87;;
47529;SDS011;33272;51.922;7.730;2023-02-22T06:22:41;20.27;;;10.87;;
47529;SDS011;33272;51.922;7.730;2023-02-22T06:25:12;35.50;;;12.13;;
47529;SDS011;33272;51.922;7.730;2023-02-22T06:27:40;37.90;;;12.33;;
47529;SDS011;33272;51.922;7.730;2023-02-22T06:30:07;56.90;;;13.17;;
47529;SDS011;33272;51.922;7.730;2023-02-22T06:32:36;49.23;;;13.97;;
47529;SDS011;33272;51.922;7.730;2023-02-22T06:35:03;42.20;;;13.03;;
47529;SDS011;33272;51.922;7.730;2023-02-22T06:37:32;30.10;;;11.93;;
47529;SDS011;33272;51.922;7.730;2023-02-22T06:39:59;50.03;;;12.77;;
47529;SDS011;33272;51.922;7.730;2023-02-22T06:42:26;28.70;;;12.10;;
47529;SDS011;33272;51.922;7.730;2023-02-22T06:44:53;37.37;;;12.23;;
47529;SDS011;33272;51.922;7.730;2023-02-22T06:47:20;52.70;;;12.90;;
47529;SDS011;33272;51.922;7.730;2023-02-22T06:49:51;39.47;;;13.13;;
47529;SDS011;33272;51.922;7.730;2023-02-22T06:52:18;32.67;;;12.97;;
47529;SDS011;33272;51.922;7.730;2023-02-22T06:54:47;38.27;;;11.63;;
47529;SDS011;33272;51.922;7.730;2023-02-22T06:57:14;47.93;;;11.87;;
47529;SDS011;33272;51.922;7.730;2023-02-22T06:59:41;30.80;;;11.27;;
47529;SDS011;33272;51.922;7.730;2023-02-22T07:02:08;45.37;;;11.23;;
47529;SDS011;33272;51.922;7.730;2023-02-22T07:04:36;36.57;;;10.57;;
47529;SDS011;33272;51.922;7.730;2023-02-22T07:07:04;27.57;;;10.37;;
47529;SDS011;33272;51.922;7.730;2023-02-22T07:09:31;29.23;;;10.60;;
47529;SDS011;33272;51.922;7.730;2023-02-22T07:11:59;34.93;;;11.00;;
47529;SDS011;33272;51.922;7.730;2023-02-22T07:14:26;47.57;;;11.57;;
47529;SDS011;33272;51.922;7.730;2023-02-22T07:16:53;62.83;;;12.00;;
47529;SDS011;33272;51.922;7.730;2023-02-22T07:19:20;48.03;;;11.23;;
47529;SDS011;33272;51.922;7.730;2023-02-22T07:21:48;41.37;;;12.00;;
47529;SDS011;33272;51.922;7.730;2023-02-22T07:24:22;50.13;;;11.37;;
47529;SDS011;33272;51.922;7.730;2023-02-22T07:26:49;34.00;;;11.37;;
47529;SDS011;33272;51.922;7.730;2023-02-22T07:29:17;32.33;;;11.53;;
47529;SDS011;33272;51.922;7.730;2023-02-22T07:31:47;23.37;;;10.67;;
47529;SDS011;33272;51.922;7.730;2023-02-22T07:34:14;37.23;;;11.70;;
47529;SDS011;33272;51.922;7.730;2023-02-22T07:36:41;55.63;;;11.63;;
47529;SDS011;33272;51.922;7.730;2023-02-22T07:39:08;34.57;;;9.53;;
47529;SDS011;33272;51.922;7.730;2023-02-22T07:41:35;40.33;;;10.17;;
47529;SDS011;33272;51.922;7.730;2023-02-22T07:44:02;53.87;;;9.73;;
47529;SDS011;33272;51.922;7.730;2023-02-22T07:46:31;30.23;;;8.63;;
47529;SDS011;33272;51.922;7.730;2023-02-22T07:48:58;44.60;;;9.43;;
47529;SDS011;33272;51.922;7.730;2023-02-22T07:51:25;33.77;;;8.43;;
47529;SDS011;33272;51.922;7.730;2023-02-22T07:53:52;35.50;;;8.87;;
47529;SDS011;33272;51.922;7.730;2023-02-22T07:56:19;32.47;;;8.47;;
47529;SDS011;33272;51.922;7.730;2023-02-22T07:58:46;30.00;;;9.47;;
47529;SDS011;33272;51.922;7.730;2023-02-22T08:01:13;24.93;;;8.57;;
47529;SDS011;33272;51.922;7.730;2023-02-22T08:03:42;33.20;;;9.03;;
47529;SDS011;33272;51.922;7.730;2023-02-22T08:06:12;40.80;;;9.63;;
47529;SDS011;33272;51.922;7.730;2023-02-22T08:08:39;36.73;;;9.27;;
47529;SDS011;33272;51.922;7.730;2023-02-22T08:11:06;16.03;;;8.53;;
47529;SDS011;33272;51.922;7.730;2023-02-22T08:13:34;20.67;;;8.43;;
47529;SDS011;33272;51.922;7.730;2023-02-22T08:16:01;20.23;;;7.93;;
47529;SDS011;33272;51.922;7.730;2023-02-22T08:18:28;12.97;;;7.87;;
47529;SDS011;33272;51.922;7.730;2023-02-22T08:20:57;18.00;;;8.20;;
47529;SDS011;33272;51.922;7.730;2023-02-22T08:23:24;27.23;;;8.30;;
47529;SDS011;33272;51.922;7.730;2023-02-22T08:25:51;27.67;;;9.37;;
47529;SDS011;33272;51.922;7.730;2023-02-22T08:28:20;14.83;;;8.60;;
47529;SDS011;33272;51.922;7.730;2023-02-22T08:30:48;14.00;;;8.27;;
47529;SDS011;33272;51.922;7.730;2023-02-22T08:33:18;23.53;;;8.53;;
47529;SDS011;33272;51.922;7.730;2023-02-22T08:35:46;24.33;;;8.60;;
47529;SDS011;33272;51.922;7.730;2023-02-22T08:38:16;15.40;;;7.53;;
47529;SDS011;33272;51.922;7.730;2023-02-22T08:40:46;16.03;;;7.67;;
47529;SDS011;33272;51.922;7.730;2023-02-22T08:43:14;12.27;;;8.57;;
47529;SDS011;33272;51.922;7.730;2023-02-22T08:45:42;13.00;;;7.53;;
47529;SDS011;33272;51.922;7.730;2023-02-22T08:48:10;11.80;;;7.47;;
47529;SDS011;33272;51.922;7.730;2023-02-22T08:50:39;9.43;;;6.90;;
47529;SDS011;33272;51.922;7.730;2023-02-22T08:53:07;9.90;;;8.20;;
47529;SDS011;33272;51.922;7.730;2023-02-22T08:55:39;7.77;;;6.97;;
47529;SDS011;33272;51.922;7.730;2023-02-22T08:58:07;8.93;;;7.30;;
47529;SDS011;33272;51.922;7.730;2023-02-22T09:00:34;11.97;;;7.33;;
47529;SDS011;33272;51.922;7.730;2023-02-22T09:03:04;11.50;;;7.33;;
47529;SDS011;33272;51.922;7.730;2023-02-22T09:05:32;10.90;;;7.13;;
47529;SDS011;33272;51.922;7.730;2023-02-22T09:07:59;7.50;;;6.63;;
47529;SDS011;33272;51.922;7.730;2023-02-22T09:10:29;10.90;;;7.30;;
47529;SDS011;33272;51.922;7.730;2023-02-22T09:12:59;10.07;;;7.07;;
47529;SDS011;33272;51.922;7.730;2023-02-22T09:15:28;9.13;;;7.73;;
47529;SDS011;33272;51.922;7.730;2023-02-22T09:17:55;9.27;;;7.93;;
47529;SDS011;33272;51.922;7.730;2023-02-22T09:20:23;10.93;;;7.90;;
47529;SDS011;33272;51.922;7.730;2023-02-22T09:22:51;9.63;;;7.40;;
47529;SDS011;33272;51.922;7.730;2023-02-22T09:25:19;10.63;;;7.90;;
47529;SDS011;33272;51.922;7.730;2023-02-22T09:27:47;10.27;;;8.27;;
47529;SDS011;33272;51.922;7.730;2023-02-22T09:30:17;9.03;;;7.50;;
47529;SDS011;33272;51.922;7.730;2023-02-22T09:32:52;9.33;;;7.43;;
47529;SDS011;33272;51.922;7.730;2023-02-22T09:35:21;11.10;;;8.00;;
47529;SDS011;33272;51.922;7.730;2023-02-22T09:37:51;12.83;;;9.03;;
47529;SDS011;33272;51.922;7.730;2023-02-22T09:40:20;11.37;;;8.23;;
47529;SDS011;33272;51.922;7.730;2023-02-22T09:43:02;10.57;;;8.80;;
47529;SDS011;33272;51.922;7.730;2023-02-22T09:46:08;11.10;;;8.53;;
47529;SDS011;33272;51.922;7.730;2023-02-22T09:48:56;9.73;;;8.07;;
47529;SDS011;33272;51.922;7.730;2023-02-22T09:51:32;9.33;;;7.50;;
47529;SDS011;33272;51.922;7.730;2023-02-22T09:54:09;11.73;;;8.90;;
47529;SDS011;33272;51.922;7.730;2023-02-22T09:56:45;9.93;;;8.80;;
47529;SDS011;33272;51.922;7.730;2023-02-22T09:59:17;10.67;;;8.47;;
47529;SDS011;33272;51.922;7.730;2023-02-22T10:01:54;10.87;;;7.87;;
47529;SDS011;33272;51.922;7.730;2023-02-22T10:04:33;10.40;;;8.97;;
47529;SDS011;33272;51.922;7.730;2023-02-22T10:07:14;11.87;;;9.33;;
47529;SDS011;33272;51.922;7.730;2023-02-22T10:09:46;10.57;;;8.03;;
47529;SDS011;33272;51.922;7.730;2023-02-22T10:12:17;13.50;;;9.37;;
47529;SDS011;33272;51.922;7.730;2023-02-22T10:15:07;11.37;;;8.93;;
47529;SDS011;33272;51.922;7.730;2023-02-22T10:21:17;10.23;;;8.47;;
47529;SDS011;33272;51.922;7.730;2023-02-22T10:24:06;13.33;;;9.87;;
47529;SDS011;33272;51.922;7.730;2023-02-22T10:26:47;12.73;;;9.17;;
47529;SDS011;33272;51.922;7.730;2023-02-22T10:29:16;12.97;;;9.70;;
47529;SDS011;33272;51.922;7.730;2023-02-22T10:31:51;13.13;;;9.80;;
47529;SDS011;33272;51.922;7.730;2023-02-22T10:34:25;10.37;;;8.43;;
47529;SDS011;33272;51.922;7.730;2023-02-22T10:36:56;11.57;;;9.23;;
47529;SDS011;33272;51.922;7.730;2023-02-22T10:39:34;12.77;;;9.63;;
47529;SDS011;33272;51.922;7.730;2023-02-22T10:42:04;11.77;;;9.17;;
47529;SDS011;33272;51.922;7.730;2023-02-22T10:44:33;11.77;;;8.77;;
47529;SDS011;33272;51.922;7.730;2023-02-22T10:47:03;12.10;;;9.80;;
47529;SDS011;33272;51.922;7.730;2023-02-22T10:49:35;11.37;;;8.47;;
47529;SDS011;33272;51.922;7.730;2023-02-22T10:52:10;13.57;;;9.50;;
47529;SDS011;33272;51.922;7.730;2023-02-22T10:54:43;12.93;;;9.77;;
47529;SDS011;33272;51.922;7.730;2023-02-22T10:57:13;14.07;;;9.87;;
47529;SDS011;33272;51.922;7.730;2023-02-22T10:59:45;12.27;;;9.23;;
47529;SDS011;33272;51.922;7.730;2023-02-22T11:02:16;13.30;;;9.87;;
47529;SDS011;33272;51.922;7.730;2023-02-22T11:04:48;11.90;;;9.30;;
47529;SDS011;33272;51.922;7.730;2023-02-22T11:07:18;11.67;;;9.43;;
47529;SDS011;33272;51.922;7.730;2023-02-22T11:09:49;12.27;;;8.77;;
47529;SDS011;33272;51.922;7.730;2023-02-22T11:12:20;10.07;;;8.00;;
47529;SDS011;33272;51.922;7.730;2023-02-22T11:14:53;11.67;;;9.80;;
47529;SDS011;33272;51.922;7.730;2023-02-22T11:17:23;13.10;;;9.80;;
47529;SDS011;33272;51.922;7.730;2023-02-22T11:19:57;11.50;;;8.63;;
47529;SDS011;33272;51.922;7.730;2023-02-22T11:22:25;9.63;;;8.63;;
47529;SDS011;33272;51.922;7.730;2023-02-22T11:24:57;11.70;;;9.03;;
47529;SDS011;33272;51.922;7.730;2023-02-22T11:27:30;13.10;;;9.23;;
47529;SDS011;33272;51.922;7.730;2023-02-22T11:30:14;11.73;;;8.17;;
47529;SDS011;33272;51.922;7.730;2023-02-22T11:32:52;9.47;;;7.37;;
47529;SDS011;33272;51.922;7.730;2023-02-22T11:35:35;10.53;;;8.00;;
47529;SDS011;33272;51.922;7.730;2023-02-22T11:38:08;12.33;;;8.40;;
47529;SDS011;33272;51.922;7.730;2023-02-22T11:41:03;10.23;;;7.93;;
47529;SDS011;33272;51.922;7.730;2023-02-22T11:43:39;11.73;;;8.13;;
47529;SDS011;33272;51.922;7.730;2023-02-22T11:46:09;12.77;;;8.30;;
47529;SDS011;33272;51.922;7.730;2023-02-22T11:48:40;10.27;;;7.73;;
47529;SDS011;33272;51.922;7.730;2023-02-22T11:51:18;11.30;;;8.17;;
47529;SDS011;33272;51.922;7.730;2023-02-22T11:56:54;10.77;;;8.07;;
47529;SDS011;33272;51.922;7.730;2023-02-22T11:59:37;12.17;;;8.17;;
47529;SDS011;33272;51.922;7.730;2023-02-22T12:02:18;10.13;;;8.03;;
47529;SDS011;33272;51.922;7.730;2023-02-22T12:05:08;10.97;;;7.97;;
47529;SDS011;33272;51.922;7.730;2023-02-22T12:07:50;10.10;;;7.63;;
47529;SDS011;33272;51.922;7.730;2023-02-22T12:10:38;9.53;;;7.80;;
47529;SDS011;33272;51.922;7.730;2023-02-22T12:13:24;9.60;;;7.07;;
47529;SDS011;33272;51.922;7.730;2023-02-22T12:16:07;10.90;;;7.33;;
47529;SDS011;33272;51.922;7.730;2023-02-22T12:18:49;11.50;;;7.77;;
47529;SDS011;33272;51.922;7.730;2023-02-22T12:21:32;10.93;;;7.50;;
47529;SDS011;33272;51.922;7.730;2023-02-22T12:24:06;8.63;;;7.30;;
47529;SDS011;33272;51.922;7.730;2023-02-22T12:26:39;10.10;;;7.77;;
47529;SDS011;33272;51.922;7.730;2023-02-22T12:29:10;9.50;;;7.77;;
47529;SDS011;33272;51.922;7.730;2023-02-22T12:31:43;10.50;;;8.20;;
47529;SDS011;33272;51.922;7.730;2023-02-22T12:34:16;9.70;;;7.37;;
47529;SDS011;33272;51.922;7.730;2023-02-22T12:36:54;12.23;;;7.97;;
47529;SDS011;33272;51.922;7.730;2023-02-22T12:39:32;9.17;;;7.70;;
47529;SDS011;33272;51.922;7.730;2023-02-22T12:42:11;10.13;;;7.57;;
47529;SDS011;33272;51.922;7.730;2023-02-22T12:44:42;11.17;;;7.83;;
47529;SDS011;33272;51.922;7.730;2023-02-22T12:47:18;10.80;;;8.20;;
47529;SDS011;33272;51.922;7.730;2023-02-22T12:50:04;10.20;;;8.33;;
47529;SDS011;33272;51.922;7.730;2023-02-22T12:52:41;10.97;;;8.10;;
47529;SDS011;33272;51.922;7.730;2023-02-22T12:55:17;10.43;;;8.17;;
47529;SDS011;33272;51.922;7.730;2023-02-22T12:57:52;10.87;;;8.13;;
47529;SDS011;33272;51.922;7.730;2023-02-22T13:00:27;12.83;;;8.50;;
47529;SDS011;33272;51.922;7.730;2023-02-22T13:03:02;12.03;;;8.00;;
47529;SDS011;33272;51.922;7.730;2023-02-22T13:05:43;12.30;;;8.20;;
47529;SDS011;33272;51.922;7.730;2023-02-22T13:08:19;10.43;;;7.77;;
47529;SDS011;33272;51.922;7.730;2023-02-22T13:10:59;12.00;;;8.40;;
47529;SDS011;33272;51.922;7.730;2023-02-22T13:13:37;10.33;;;8.53;;
47529;SDS011;33272;51.922;7.730;2023-02-22T13:16:20;11.60;;;8.57;;
47529;SDS011;33272;51.922;7.730;2023-02-22T13:18:58;10.53;;;8.00;;
47529;SDS011;33272;51.922;7.730;2023-02-22T13:21:40;10.67;;;7.20;;
47529;SDS011;33272;51.922;7.730;2023-02-22T13:24:15;9.03;;;6.87;;
47529;SDS011;33272;51.922;7.730;2023-02-22T13:26:51;9.17;;;7.10;;
47529;SDS011;33272;51.922;7.730;2023-02-22T13:29:22;12.27;;;7.43;;
47529;SDS011;33272;51.922;7.730;2023-02-22T13:31:59;12.43;;;7.97;;
47529;SDS011;33272;51.922;7.730;2023-02-22T13:34:47;9.00;;;6.60;;
47529;SDS011;33272;51.922;7.730;2023-02-22T13:37:51;9.53;;;7.07;;
47529;SDS011;33272;51.922;7.730;2023-02-22T13:40:47;9.80;;;6.80;;
47529;SDS011;33272;51.922;7.730;2023-02-22T13:43:44;8.93;;;6.13;;
47529;SDS011;33272;51.922;7.730;2023-02-22T13:47:12;9.30;;;6.40;;
47529;SDS011;33272;51.922;7.730;2023-02-22T13:50:25;11.33;;;7.03;;
47529;SDS011;33272;51.922;7.730;2023-02-22T13:53:10;10.57;;;7.57;;
47529;SDS011;33272;51.922;7.730;2023-02-22T13:55:42;8.73;;;7.17;;
47529;SDS011;33272;51.922;7.730;2023-02-22T13:58:17;9.13;;;6.80;;
47529;SDS011;33272;51.922;7.730;2023-02-22T14:00:48;10.50;;;7.00;;
47529;SDS011;33272;51.922;7.730;2023-02-22T14:03:27;9.20;;;6.47;;
47529;SDS011;33272;51.922;7.730;2023-02-22T14:06:09;8.77;;;6.73;;
47529;SDS011;33272;51.922;7.730;2023-02-22T14:09:03;9.93;;;6.30;;
47529;SDS011;33272;51.922;7.730;2023-02-22T14:14:14;9.10;;;7.07;;
47529;SDS011;33272;51.922;7.730;2023-02-22T14:17:14;7.73;;;5.80;;
47529;SDS011;33272;51.922;7.730;2023-02-22T14:20:05;8.87;;;6.13;;
47529;SDS011;33272;51.922;7.730;2023-02-22T14:22:54;10.00;;;6.77;;
47529;SDS011;33272;51.922;7.730;2023-02-22T14:25:33;9.37;;;6.53;;
47529;SDS011;33272;51.922;7.730;2023-02-22T14:28:06;9.43;;;6.80;;
47529;SDS011;33272;51.922;7.730;2023-02-22T14:31:02;9.27;;;6.73;;
47529;SDS011;33272;51.922;7.730;2023-02-22T14:33:49;7.30;;;5.67;;
47529;SDS011;33272;51.922;7.730;2023-02-22T14:36:25;7.60;;;5.67;;
47529;SDS011;33272;51.922;7.730;2023-02-22T14:39:00;6.33;;;5.13;;
47529;SDS011;33272;51.922;7.730;2023-02-22T14:41:35;11.03;;;5.47;;
47529;SDS011;33272;51.922;7.730;2023-02-22T14:44:06;8.07;;;5.63;;
47529;SDS011;33272;51.922;7.730;2023-02-22T14:46:37;10.20;;;5.73;;
47529;SDS011;33272;51.922;7.730;2023-02-22T14:49:11;8.73;;;5.87;;
47529;SDS011;33272;51.922;7.730;2023-02-22T14:51:43;9.50;;;5.93;;
47529;SDS011;33272;51.922;7.730;2023-02-22T14:54:22;8.90;;;6.20;;
47529;SDS011;33272;51.922;7.730;2023-02-22T14:56:59;7.70;;;5.83;;
47529;SDS011;33272;51.922;7.730;2023-02-22T15:02:43;9.00;;;6.57;;
47529;SDS011;33272;51.922;7.730;2023-02-22T15:05:13;7.23;;;5.87;;
47529;SDS011;33272;51.922;7.730;2023-02-22T15:07:50;9.23;;;6.13;;
47529;SDS011;33272;51.922;7.730;2023-02-22T15:10:21;9.63;;;5.70;;
47529;SDS011;33272;51.922;7.730;2023-02-22T15:12:54;9.23;;;6.00;;
47529;SDS011;33272;51.922;7.730;2023-02-22T15:15:35;8.93;;;5.27;;
47529;SDS011;33272;51.922;7.730;2023-02-22T15:18:11;7.83;;;5.33;;